Time;durP1;ratioP1;P1;durP2;ratioP2;P2;SDS_P1;SDS_P2;PMS_P1;PMS_P2;Temp;Humidity;BMP_temperature;BMP_pressure;BME280_temperature;BME280_humidity;BME280_pressure;Samples;Min_cycle;Max_cycle;Signal;HPM_P1;HPM_P2
2023/08/25 00:00:31;;;;;;;;;15.25;11.75;;;;;24.51;65.57;100336.69;5081828;27;45424;-72
2023/08/25 00:02:57;;;;;;;;;11.25;10.00;;;;;24.48;65.86;100329.78;5089824;27;59224;-71
2023/08/25 00:05:22;;;;;;;;;12.25;10.00;;;;;24.45;65.95;100325.56;5098724;27;64991;-72
2023/08/25 00:07:48;;;;;;;;;13.00;12.50;;;;;24.45;66.03;100322.03;5091461;27;45271;-72
2023/08/25 00:10:13;;;;;;;;;12.75;9.00;;;;;24.40;65.93;100319.78;5088575;27;45456;-72
2023/08/25 00:12:39;;;;;;;;;11.00;9.25;;;;;24.44;65.98;100318.50;5084096;27;45189;-72
2023/08/25 00:15:04;;;;;;;;;10.50;10.50;;;;;24.44;65.99;100313.16;5089491;27;47272;-73
2023/08/25 00:17:30;;;;;;;;;12.75;11.75;;;;;24.47;66.15;100308.50;5087361;27;45442;-72
2023/08/25 00:19:56;;;;;;;;;11.75;11.25;;;;;24.46;65.86;100307.69;5088608;27;45483;-72
2023/08/25 00:22:21;;;;;;;;;12.00;10.00;;;;;24.44;65.79;100298.94;5087690;27;45945;-72
2023/08/25 00:24:47;;;;;;;;;11.75;9.50;;;;;24.44;65.91;100305.13;5084754;27;46247;-72
2023/08/25 00:27:12;;;;;;;;;13.25;10.25;;;;;24.43;65.97;100302.59;5091920;27;64323;-72
2023/08/25 00:29:37;;;;;;;;;13.00;10.50;;;;;24.42;66.14;100300.94;5089052;27;45568;-70
2023/08/25 00:32:03;;;;;;;;;9.00;9.00;;;;;24.40;66.38;100294.84;5093055;27;73030;-71
2023/08/25 00:34:28;;;;;;;;;11.00;10.50;;;;;24.41;66.23;100293.88;5087210;27;45972;-71
2023/08/25 00:36:53;;;;;;;;;12.75;10.50;;;;;24.40;66.25;100297.53;5086862;27;69026;-70
2023/08/25 00:39:19;;;;;;;;;9.25;9.25;;;;;24.38;66.32;100289.69;5089066;27;50475;-71
2023/08/25 00:41:44;;;;;;;;;9.50;9.25;;;;;24.38;66.53;100280.78;5086968;27;45766;-72
2023/08/25 00:44:09;;;;;;;;;11.75;10.00;;;;;24.37;66.21;100271.09;5099230;27;46114;-72
2023/08/25 00:46:35;;;;;;;;;11.50;10.25;;;;;24.33;66.52;100265.19;5084163;27;64569;-72
2023/08/25 00:49:01;;;;;;;;;11.25;11.00;;;;;24.34;66.58;100268.69;5084231;27;48191;-72
2023/08/25 00:51:26;;;;;;;;;10.25;6.75;;;;;24.33;66.86;100275.00;5090567;27;68826;-72
2023/08/25 00:53:52;;;;;;;;;11.25;10.50;;;;;24.32;66.55;100276.00;5079078;27;64754;-71
2023/08/25 00:56:18;;;;;;;;;12.75;11.75;;;;;24.31;66.49;100277.00;5091962;27;45500;-72
2023/08/25 00:58:44;;;;;;;;;12.00;8.75;;;;;24.30;66.83;100275.31;5087572;27;45276;-72
2023/08/25 01:01:10;;;;;;;;;11.00;8.00;;;;;24.28;67.17;100272.78;5096080;27;45328;-72
2023/08/25 01:03:38;;;;;;;;;10.25;9.50;;;;;24.27;67.27;100271.09;5098938;27;45500;-73
2023/08/25 01:06:03;;;;;;;;;12.75;9.75;;;;;24.28;67.22;100285.31;5079988;27;45705;-72
2023/08/25 01:08:29;;;;;;;;;15.00;11.00;;;;;24.27;67.62;100284.44;5086556;27;45409;-72
2023/08/25 01:11:14;;;;;;;;;12.50;11.00;;;;;24.26;67.24;100294.31;5092310;27;61710;-72
2023/08/25 01:14:13;;;;;;;;;10.00;10.00;;;;;24.26;67.23;100298.81;5083262;27;45446;-72
2023/08/25 01:16:55;;;;;;;;;11.75;10.25;;;;;24.25;67.33;100289.94;5088830;27;45721;-72
2023/08/25 01:19:56;;;;;;;;;14.75;11.25;;;;;24.24;67.46;100287.41;5088325;27;45549;-71
2023/08/25 01:22:33;;;;;;;;;11.00;9.75;;;;;24.21;67.55;100285.88;5092753;27;45418;-71
2023/08/25 01:25:22;;;;;;;;;9.00;9.00;;;;;24.20;67.57;100288.69;5093150;27;46185;-72
2023/08/25 01:27:49;;;;;;;;;14.00;10.50;;;;;24.17;67.74;100283.59;5089664;27;45648;-72
2023/08/25 01:30:14;;;;;;;;;7.50;6.50;;;;;24.17;67.82;100287.13;5093978;27;46060;-72
2023/08/25 01:32:40;;;;;;;;;9.75;9.75;;;;;24.15;67.83;100282.91;5086999;27;67248;-71
2023/08/25 01:35:06;;;;;;;;;12.25;12.25;;;;;24.14;67.93;100282.06;5089399;27;62594;-71
2023/08/25 01:37:32;;;;;;;;;12.75;10.00;;;;;24.13;68.11;100280.38;5081735;27;45417;-73
2023/08/25 01:40:04;;;;;;;;;10.25;10.25;;;;;24.14;67.94;100262.53;5082021;27;45359;-71
2023/08/25 01:42:33;;;;;;;;;12.50;10.00;;;;;24.13;68.31;100264.31;5090518;27;45342;-71
2023/08/25 01:45:00;;;;;;;;;12.00;10.75;;;;;24.11;68.11;100274.31;5083061;27;46214;-71
2023/08/25 01:47:27;;;;;;;;;13.25;11.00;;;;;24.12;68.25;100275.19;5090176;27;45421;-72
2023/08/25 01:49:53;;;;;;;;;11.75;10.25;;;;;24.09;68.22;100275.47;5088350;27;45231;-72
2023/08/25 01:52:19;;;;;;;;;14.75;12.00;;;;;24.08;68.60;100269.25;5086033;27;64250;-72
2023/08/25 01:54:45;;;;;;;;;14.00;8.75;;;;;24.07;68.11;100271.09;5090140;27;45331;-72
2023/08/25 01:57:10;;;;;;;;;13.00;11.50;;;;;24.06;68.54;100272.09;5089332;27;45252;-71
2023/08/25 01:59:36;;;;;;;;;12.75;11.00;;;;;24.04;68.46;100273.19;5084192;27;45357;-72
2023/08/25 02:02:01;;;;;;;;;10.75;9.00;;;;;24.02;68.82;100275.16;5089822;27;66172;-72
2023/08/25 02:04:26;;;;;;;;;10.25;10.25;;;;;23.97;68.68;100267.56;5092285;27;59873;-73
2023/08/25 02:06:52;;;;;;;;;10.50;9.50;;;;;23.99;69.13;100262.06;5094586;27;45380;-71
2023/08/25 02:09:17;;;;;;;;;12.75;11.50;;;;;23.97;68.83;100258.69;5084637;27;57360;-72
2023/08/25 02:11:42;;;;;;;;;10.00;9.25;;;;;23.92;69.38;100256.47;5090640;27;69448;-72
2023/08/25 02:14:07;;;;;;;;;14.00;10.25;;;;;23.95;69.41;100244.63;5085303;27;70105;-71
2023/08/25 02:16:33;;;;;;;;;12.25;10.50;;;;;23.94;69.35;100245.59;5083197;27;69324;-71
2023/08/25 02:18:58;;;;;;;;;13.50;10.00;;;;;23.90;69.50;100246.88;5091054;27;53465;-72
2023/08/25 02:21:24;;;;;;;;;11.25;10.50;;;;;23.90;69.84;100258.41;5089290;27;45526;-73
2023/08/25 02:23:49;;;;;;;;;14.25;10.75;;;;;23.92;69.68;100248.44;5085104;27;45421;-71
2023/08/25 02:26:14;;;;;;;;;12.75;9.50;;;;;23.95;69.71;100248.16;5099447;27;45412;-72
2023/08/25 02:28:40;;;;;;;;;12.25;11.00;;;;;23.95;69.41;100242.81;5090390;27;67644;-73
2023/08/25 02:31:05;;;;;;;;;8.00;8.00;;;;;23.96;69.74;100232.97;5092761;27;69267;-74
2023/08/25 02:33:31;;;;;;;;;10.00;8.75;;;;;24.00;69.66;100223.69;5090544;27;46344;-73
2023/08/25 02:35:56;;;;;;;;;10.75;9.00;;;;;23.97;69.49;100213.25;5094684;27;72011;-73
2023/08/25 02:38:22;;;;;;;;;13.50;11.75;;;;;23.96;69.52;100200.91;5095250;27;45277;-73
2023/08/25 02:40:47;;;;;;;;;17.50;15.00;;;;;23.95;70.36;100205.38;5087279;27;70984;-73
2023/08/25 02:43:12;;;;;;;;;21.00;18.75;;;;;23.87;71.01;100186.56;5095204;27;68893;-72
2023/08/25 02:45:38;;;;;;;;;23.00;19.50;;;;;23.81;71.74;100187.94;5099199;27;60347;-73
2023/08/25 02:48:04;;;;;;;;;22.75;20.00;;;;;23.75;70.97;100180.47;5098953;27;45493;-72
2023/08/25 02:50:29;;;;;;;;;17.50;16.00;;;;;23.75;71.35;100187.66;5089672;27;45703;-73
2023/08/25 02:52:56;;;;;;;;;21.50;17.25;;;;;23.74;71.12;100177.94;5089164;27;56684;-71
2023/08/25 02:55:22;;;;;;;;;24.25;19.00;;;;;23.76;70.97;100189.31;5092594;27;45700;-70
2023/08/25 02:57:48;;;;;;;;;13.75;11.50;;;;;23.72;71.38;100195.94;5095095;27;45479;-71
2023/08/25 03:00:16;;;;;;;;;16.50;16.50;;;;;23.64;71.39;100180.63;5100421;27;45404;-71
2023/08/25 03:02:42;;;;;;;;;15.75;15.50;;;;;23.64;71.23;100189.47;5097343;27;47164;-70
2023/08/25 03:05:08;;;;;;;;;24.00;16.75;;;;;23.65;71.30;100196.47;5098038;27;45368;-70
2023/08/25 03:07:34;;;;;;;;;24.00;18.25;;;;;23.67;71.25;100197.22;5089685;27;45465;-70
2023/08/25 03:09:59;;;;;;;;;22.25;15.00;;;;;23.68;71.47;100196.19;5100581;27;63271;-70
2023/08/25 03:12:26;;;;;;;;;22.75;19.00;;;;;23.73;71.11;100208.28;5096527;27;45370;-70
2023/08/25 03:14:52;;;;;;;;;19.75;19.50;;;;;23.68;71.10;100222.91;5095285;27;45285;-70
2023/08/25 03:17:18;;;;;;;;;22.00;18.00;;;;;23.69;70.89;100229.09;5085394;27;45237;-71
2023/08/25 03:19:44;;;;;;;;;21.25;18.50;;;;;23.71;71.16;100229.81;5084664;27;45354;-71
2023/08/25 03:22:09;;;;;;;;;17.25;15.25;;;;;23.76;71.12;100243.63;5095131;27;45999;-70
2023/08/25 03:24:34;;;;;;;;;19.00;15.25;;;;;23.78;71.29;100256.81;5087302;27;62415;-70
2023/08/25 03:27:00;;;;;;;;;15.25;15.25;;;;;23.81;71.28;100264.59;5093404;27;54411;-70
2023/08/25 03:29:25;;;;;;;;;15.00;14.50;;;;;23.88;71.00;100273.75;5090961;27;67561;-71
2023/08/25 03:31:51;;;;;;;;;20.25;16.50;;;;;23.91;70.67;100273.47;5098679;27;46033;-71
2023/08/25 03:34:16;;;;;;;;;22.75;18.75;;;;;23.88;71.05;100287.09;5084428;27;45852;-71
2023/08/25 03:36:41;;;;;;;;;19.75;17.50;;;;;23.87;71.27;100294.28;5096770;27;54030;-71
2023/08/25 03:39:07;;;;;;;;;22.00;20.00;;;;;23.91;71.04;100310.88;5086481;27;61043;-71
2023/08/25 03:41:32;;;;;;;;;24.00;20.50;;;;;23.93;70.71;100297.38;5084577;27;45150;-71
2023/08/25 03:43:57;;;;;;;;;23.50;19.50;;;;;23.95;71.06;100266.03;5087777;27;58610;-70
2023/08/25 03:46:23;;;;;;;;;25.00;21.75;;;;;23.96;70.82;100271.22;5088013;27;61929;-72
2023/08/25 03:48:48;;;;;;;;;23.75;19.75;;;;;23.93;70.66;100276.84;5099286;27;45461;-71
2023/08/25 03:51:14;;;;;;;;;23.50;21.00;;;;;23.90;71.64;100274.44;5093705;27;46627;-72
2023/08/25 03:53:39;;;;;;;;;22.75;19.50;;;;;23.87;72.00;100272.06;5099072;27;45486;-71
2023/08/25 03:56:04;;;;;;;;;27.75;22.00;;;;;23.86;70.78;100267.69;5093882;27;45929;-71
2023/08/25 03:58:30;;;;;;;;;25.50;21.50;;;;;23.85;71.41;100261.53;5088953;27;50335;-71
2023/08/25 04:00:56;;;;;;;;;30.25;26.00;;;;;23.87;71.38;100258.72;5089423;27;47265;-70
2023/08/25 04:03:21;;;;;;;;;27.50;23.50;;;;;23.82;71.32;100245.75;5094192;27;45432;-70
2023/08/25 04:05:46;;;;;;;;;27.75;25.25;;;;;23.84;71.82;100246.44;5085758;27;45346;-71
2023/08/25 04:08:12;;;;;;;;;28.25;23.50;;;;;23.87;71.65;100250.69;5093951;27;45240;-70
2023/08/25 04:10:39;;;;;;;;;28.50;25.25;;;;;23.88;71.21;100245.19;5091571;27;46254;-70
2023/08/25 04:13:04;;;;;;;;;28.25;26.25;;;;;23.85;71.36;100229.44;5087889;27;45797;-71
2023/08/25 04:15:30;;;;;;;;;24.25;23.50;;;;;23.86;72.09;100228.44;5087109;27;46004;-74
2023/08/25 04:17:55;;;;;;;;;22.75;21.00;;;;;23.86;71.25;100235.63;5092851;27;45472;-71
2023/08/25 04:20:20;;;;;;;;;23.25;19.50;;;;;23.86;71.64;100233.78;5085331;27;45998;-71
2023/08/25 04:22:46;;;;;;;;;52.75;34.75;;;;;23.86;71.87;100233.78;5097735;27;45279;-71
2023/08/25 04:25:11;;;;;;;;;54.00;39.00;;;;;23.91;71.63;100230.72;5091690;27;64176;-71
2023/08/25 04:27:36;;;;;;;;;34.50;28.00;;;;;23.94;71.45;100230.44;5092161;27;46320;-71
2023/08/25 04:30:02;;;;;;;;;28.00;23.25;;;;;23.94;71.51;100222.41;5084143;27;46311;-71
2023/08/25 04:32:28;;;;;;;;;30.75;21.25;;;;;23.94;71.41;100216.22;5083885;27;45217;-71
2023/08/25 04:34:54;;;;;;;;;39.50;30.00;;;;;23.94;70.89;100208.19;5096071;27;45492;-72
2023/08/25 04:37:19;;;;;;;;;28.50;23.25;;;;;23.94;71.79;100217.06;5091279;27;60226;-71
2023/08/25 04:39:44;;;;;;;;;31.25;26.75;;;;;23.95;71.11;100209.91;5090326;27;45513;-71
2023/08/25 04:42:10;;;;;;;;;32.00;29.75;;;;;23.88;71.76;100207.75;5087438;27;61511;-72
2023/08/25 04:44:35;;;;;;;;;29.25;26.25;;;;;23.77;72.36;100207.03;5096856;27;45538;-72
2023/08/25 04:47:00;;;;;;;;;44.50;33.50;;;;;23.67;72.33;100207.03;5092960;27;45373;-70
2023/08/25 04:49:26;;;;;;;;;47.00;35.25;;;;;23.61;72.80;100208.44;5094532;27;48251;-70
2023/08/25 04:51:51;;;;;;;;;49.75;35.75;;;;;23.55;73.25;100205.47;5091008;27;45389;-72
2023/08/25 04:54:17;;;;;;;;;47.75;35.75;;;;;23.49;73.31;100204.19;5092054;27;55365;-70
2023/08/25 04:56:43;;;;;;;;;35.75;30.00;;;;;23.38;73.55;100207.81;5098329;27;45581;-70
2023/08/25 04:59:08;;;;;;;;;43.25;34.75;;;;;23.29;74.05;100212.16;5098338;27;45864;-71
2023/08/25 05:01:33;;;;;;;;;45.00;34.50;;;;;23.25;74.27;100205.41;5092995;27;45402;-70
2023/08/25 05:03:59;;;;;;;;;42.25;33.00;;;;;23.20;74.43;100209.47;5096447;27;45438;-72
2023/08/25 05:06:24;;;;;;;;;44.25;35.50;;;;;23.14;74.92;100205.50;5090858;27;45460;-72
2023/08/25 05:08:50;;;;;;;;;45.25;36.00;;;;;23.07;74.89;100205.22;5094088;27;67133;-72
2023/08/25 05:11:16;;;;;;;;;43.00;34.25;;;;;23.08;74.98;100206.91;5093942;27;45557;-73
2023/08/25 05:13:41;;;;;;;;;47.00;36.00;;;;;23.01;75.58;100203.06;5085563;27;45479;-72
2023/08/25 05:16:08;;;;;;;;;44.25;34.00;;;;;22.98;75.89;100205.16;5096027;27;45654;-74
2023/08/25 05:18:33;;;;;;;;;46.00;36.00;;;;;22.98;76.05;100205.16;5069954;27;47152;-72
2023/08/25 05:21:00;;;;;;;;;46.75;35.50;;;;;22.97;75.53;100200.81;5086307;27;45347;-72
2023/08/25 05:23:25;;;;;;;;;50.75;38.50;;;;;22.94;76.17;100197.41;5094153;27;45392;-73
2023/08/25 05:25:50;;;;;;;;;45.50;36.00;;;;;22.92;76.50;100211.88;5089473;27;45441;-72
2023/08/25 05:28:16;;;;;;;;;44.25;34.75;;;;;22.94;76.08;100215.25;5087426;27;45534;-79
2023/08/25 05:30:46;;;;;;;;;41.00;33.25;;;;;22.98;76.35;100210.47;5083439;27;45437;-72
2023/08/25 05:33:11;;;;;;;;;45.50;35.75;;;;;23.05;76.05;100217.84;5088260;27;45336;-73
2023/08/25 05:35:37;;;;;;;;;48.00;38.75;;;;;23.03;76.17;100224.28;5099182;27;45312;-72
2023/08/25 05:38:06;;;;;;;;;51.00;38.25;;;;;23.07;75.89;100234.59;5079278;27;46376;-70
2023/08/25 05:40:31;;;;;;;;;42.25;34.25;;;;;23.08;76.01;100227.41;5086727;27;45342;-74
2023/08/25 05:42:56;;;;;;;;;46.75;37.75;;;;;23.18;75.79;100230.97;5091298;27;45336;-72
2023/08/25 05:45:22;;;;;;;;;45.00;36.25;;;;;23.18;75.22;100238.97;5092589;27;45483;-71
2023/08/25 05:47:47;;;;;;;;;48.00;36.50;;;;;23.16;75.41;100248.94;5080973;27;59488;-71
2023/08/25 05:50:12;;;;;;;;;45.00;36.25;;;;;23.14;75.25;100258.91;5083411;27;58365;-68
2023/08/25 05:52:39;;;;;;;;;48.25;36.75;;;;;23.17;75.09;100265.81;5084123;27;45524;-68
2023/08/25 05:55:06;;;;;;;;;48.50;36.00;;;;;23.21;75.37;100256.53;5087963;27;45588;-68
2023/08/25 05:57:31;;;;;;;;;44.25;35.00;;;;;23.24;74.80;100269.63;5086310;27;46345;-67
2023/08/25 05:59:58;;;;;;;;;46.25;37.25;;;;;23.27;74.69;100272.88;5090933;27;45241;-67
2023/08/25 06:02:23;;;;;;;;;49.50;39.25;;;;;23.29;74.38;100267.41;5078168;27;45302;-68
2023/08/25 06:04:48;;;;;;;;;48.00;37.75;;;;;23.29;74.59;100260.22;5097474;27;52993;-67
2023/08/25 06:07:14;;;;;;;;;46.00;35.00;;;;;23.29;73.90;100235.34;5095217;27;66634;-69
2023/08/25 06:09:39;;;;;;;;;48.25;38.50;;;;;23.26;74.02;100233.78;5091949;27;45502;-76
2023/08/25 06:12:05;;;;;;;;;46.00;37.00;;;;;23.21;74.24;100229.84;5082974;27;61254;-67
2023/08/25 06:14:30;;;;;;;;;45.75;37.75;;;;;23.10;74.40;100230.78;5089930;27;45462;-70
2023/08/25 06:17:00;;;;;;;;;47.75;37.75;;;;;23.08;74.36;100225.59;5098578;27;47180;-71
2023/08/25 06:19:26;;;;;;;;;43.50;34.75;;;;;23.00;74.79;100220.06;5098312;27;45479;-69
2023/08/25 06:21:51;;;;;;;;;43.25;34.25;;;;;23.02;74.76;100227.91;5096876;27;45266;-68
2023/08/25 06:24:16;;;;;;;;;45.75;36.00;;;;;23.03;74.52;100230.44;5088523;27;45621;-68
2023/08/25 06:26:42;;;;;;;;;46.25;34.50;;;;;23.07;74.30;100237.25;5085290;27;73392;-67
2023/08/25 06:29:07;;;;;;;;;41.25;31.75;;;;;23.09;74.45;100240.63;5090965;27;45448;-68
2023/08/25 06:31:33;;;;;;;;;44.00;34.00;;;;;23.10;73.92;100244.13;5087391;27;45366;-68
2023/08/25 06:34:02;;;;;;;;;43.25;34.75;;;;;23.13;73.96;100251.88;5085166;27;45512;-66
2023/08/25 06:36:27;;;;;;;;;36.00;31.25;;;;;23.10;74.12;100257.47;5085858;27;45564;-67
2023/08/25 06:38:52;;;;;;;;;40.00;33.50;;;;;;;;5090802;27;45339;-69
2023/08/25 06:41:17;;;;;;;;;37.33;30.33;;;;;23.00;73.95;100259.22;5082407;27;45638;-73
2023/08/25 06:43:43;;;;;;;;;37.75;32.00;;;;;23.01;73.85;100259.09;5089053;27;55338;-69
2023/08/25 06:46:08;;;;;;;;;38.75;31.50;;;;;23.02;73.86;100268.81;5084393;27;47079;-69
2023/08/25 06:48:33;;;;;;;;;41.25;32.00;;;;;23.01;73.57;100269.78;5086750;27;61178;-69
2023/08/25 06:50:59;;;;;;;;;40.25;32.00;;;;;22.98;73.85;100269.19;5066515;27;45307;-69
2023/08/25 06:53:24;;;;;;;;;34.75;30.75;;;;;22.94;73.56;100256.09;5088932;27;45559;-69
2023/08/25 06:55:49;;;;;;;;;40.75;31.00;;;;;22.91;74.08;100252.88;5098362;27;62716;-69
2023/08/25 06:58:15;;;;;;;;;42.00;32.25;;;;;22.90;74.12;100240.53;5092045;27;58431;-69
2023/08/25 07:00:40;;;;;;;;;35.00;30.00;;;;;22.91;73.85;100236.84;5093985;27;45157;-68
2023/08/25 07:03:06;;;;;;;;;31.75;27.25;;;;;22.93;73.81;100241.09;5079904;27;54320;-69
2023/08/25 07:05:31;;;;;;;;;31.00;28.50;;;;;22.94;73.86;100241.94;5091198;27;46199;-69
2023/08/25 07:07:56;;;;;;;;;30.75;28.50;;;;;22.98;74.32;100251.34;5081628;27;53037;-69
2023/08/25 07:10:22;;;;;;;;;30.50;24.50;;;;;23.00;73.87;100254.75;5095951;27;45500;-69
2023/08/25 07:12:47;;;;;;;;;29.75;25.50;;;;;23.01;73.72;100264.44;5080691;27;45243;-69
2023/08/25 07:15:13;;;;;;;;;33.50;28.00;;;;;23.00;73.45;100260.09;5082002;27;45464;-69
2023/08/25 07:17:38;;;;;;;;;28.25;25.75;;;;;22.98;73.48;100262.03;5081512;27;45258;-69
2023/08/25 07:20:08;;;;;;;;;29.75;26.50;;;;;22.96;73.88;100249.81;5081129;27;63880;-70
2023/08/25 07:22:33;;;;;;;;;34.00;28.75;;;;;22.95;73.44;100246.31;5064143;28;45555;-69
2023/08/25 07:24:59;;;;;;;;;24.50;23.25;;;;;22.95;73.45;100259.66;5086450;27;45480;-69
2023/08/25 07:27:25;;;;;;;;;35.75;28.00;;;;;22.92;73.23;100260.72;5087224;27;51268;-69
2023/08/25 07:29:53;;;;;;;;;27.25;22.50;;;;;22.91;73.16;100256.41;5083753;27;45304;-68
2023/08/25 07:32:19;;;;;;;;;23.25;21.75;;;;;22.94;73.28;100258.78;5081408;27;45543;-70
2023/08/25 07:34:47;;;;;;;;;26.25;20.25;;;;;22.98;73.00;100263.84;5081450;27;46141;-73
2023/08/25 07:37:12;;;;;;;;;25.25;21.50;;;;;22.94;72.72;100255.28;5088426;27;45775;-77
2023/08/25 07:39:41;;;;;;;;;20.50;20.00;;;;;22.98;73.02;100262.03;5080316;27;45461;-70
2023/08/25 07:42:08;;;;;;;;;26.00;19.75;;;;;23.04;72.74;100274.00;5094237;27;45512;-71
2023/08/25 07:44:35;;;;;;;;;25.50;21.00;;;;;23.07;72.63;100279.09;5099098;27;45590;-71
2023/08/25 07:47:00;;;;;;;;;22.00;18.75;;;;;23.07;72.27;100279.09;5069482;27;45463;-76
2023/08/25 07:49:25;;;;;;;;;26.75;22.50;;;;;23.05;72.52;100283.72;5097017;27;45341;-72
2023/08/25 07:51:51;;;;;;;;;20.75;19.25;;;;;23.02;72.37;100283.94;5086070;27;64549;-68
2023/08/25 07:54:16;;;;;;;;;22.00;21.25;;;;;22.92;72.31;100286.59;5082962;27;74445;-70
2023/08/25 07:56:41;;;;;;;;;25.25;19.50;;;;;22.81;72.50;100300.00;5080046;27;68451;-75
2023/08/25 07:59:07;;;;;;;;;21.50;17.00;;;;;22.69;72.82;100292.06;5086916;27;45490;-69
2023/08/25 08:01:32;;;;;;;;;17.00;15.00;;;;;22.70;73.34;100299.09;5091690;27;71038;-66
2023/08/25 08:03:58;;;;;;;;;14.00;13.00;;;;;22.74;72.90;100302.34;5080281;27;74668;-67
2023/08/25 08:06:23;;;;;;;;;14.75;14.50;;;;;22.77;73.11;100307.44;5084489;27;45285;-67
2023/08/25 08:08:49;;;;;;;;;16.00;13.25;;;;;22.80;72.60;100311.66;5094833;27;53272;-76
2023/08/25 08:11:14;;;;;;;;;17.75;12.75;;;;;22.78;72.60;100308.28;5096472;27;66509;-74
2023/08/25 08:13:39;;;;;;;;;16.25;15.25;;;;;22.73;72.76;100312.19;5086770;27;74587;-75
2023/08/25 08:16:05;;;;;;;;;17.75;16.00;;;;;22.67;72.97;100304.69;5096577;27;62616;-73
2023/08/25 08:18:30;;;;;;;;;17.00;12.50;;;;;22.60;73.70;100311.53;5083568;27;45333;-74
2023/08/25 08:20:55;;;;;;;;;14.25;12.25;;;;;22.60;73.52;100319.53;5089813;27;52165;-76
2023/08/25 08:23:21;;;;;;;;;12.75;11.00;;;;;22.52;73.84;100324.66;5083592;27;45489;-76
2023/08/25 08:25:46;;;;;;;;;14.00;13.00;;;;;22.50;74.00;100331.94;5091990;27;65209;-77
2023/08/25 08:28:12;;;;;;;;;16.50;10.25;;;;;22.35;74.66;100334.06;5095157;27;45249;-77
2023/08/25 08:30:37;;;;;;;;;9.75;7.75;;;;;22.21;74.92;100340.50;5102572;27;45423;-75
2023/08/25 08:33:04;;;;;;;;;12.75;8.50;;;;;22.19;75.27;100343.28;5093179;27;46595;-77
2023/08/25 08:35:29;;;;;;;;;8.50;7.75;;;;;22.13;75.12;100350.94;5094917;27;45752;-77
2023/08/25 08:37:54;;;;;;;;;9.00;7.50;;;;;22.11;74.71;100355.56;5081583;27;52319;-77
2023/08/25 08:40:20;;;;;;;;;9.75;8.50;;;;;22.04;74.88;100360.53;5107665;27;45486;-78
2023/08/25 08:42:46;;;;;;;;;9.75;7.25;;;;;21.98;75.11;100366.38;5101079;27;46248;-82
2023/08/25 08:45:11;;;;;;;;;9.25;7.25;;;;;21.87;75.82;100359.25;5093789;27;45404;-81
2023/08/25 08:47:37;;;;;;;;;11.50;8.50;;;;;21.85;76.06;100373.63;5093225;27;45308;-85
2023/08/25 08:50:06;;;;;;;;;8.00;6.50;;;;;21.86;75.86;100378.00;5117380;27;45466;-82
2023/08/25 08:52:39;;;;;;;;;4.00;4.00;;;;;21.80;75.58;100374.03;5114768;27;47111;-81
2023/08/25 08:55:05;;;;;;;;;5.50;5.00;;;;;21.83;75.78;100383.56;5100342;27;72223;-81
2023/08/25 08:57:30;;;;;;;;;8.25;5.75;;;;;21.84;76.05;100378.13;5084989;27;45442;-76
2023/08/25 09:00:03;;;;;;;;;4.00;4.00;;;;;21.92;75.71;100367.72;5111374;27;45632;-77
2023/08/25 09:02:30;;;;;;;;;5.75;4.75;;;;;21.91;75.16;100371.34;5096030;27;45417;-76
2023/08/25 09:04:59;;;;;;;;;5.00;3.25;;;;;21.93;74.92;100376.53;5110348;27;45230;-78
2023/08/25 09:07:28;;;;;;;;;2.00;2.00;;;;;21.95;74.91;100395.91;5085761;27;47050;-81
2023/08/25 09:09:53;;;;;;;;;3.25;2.75;;;;;21.95;74.58;100387.91;5100587;27;45474;-82
2023/08/25 09:12:19;;;;;;;;;4.00;2.00;;;;;21.93;74.49;100381.88;5098343;27;45449;-81
2023/08/25 09:14:45;;;;;;;;;3.00;3.00;;;;;21.96;73.98;100387.81;5105683;27;45218;-83
2023/08/25 09:17:14;;;;;;;;;1.00;1.00;;;;;22.00;73.08;100386.56;5090053;27;45279;-82
2023/08/25 09:19:39;;;;;;;;;3.25;3.00;;;;;21.96;72.47;100385.13;5093593;27;45580;-76
2023/08/25 09:22:09;;;;;;;;;4.00;3.00;;;;;22.04;72.71;100397.00;5095858;27;46243;-81
2023/08/25 09:24:37;;;;;;;;;1.75;1.75;;;;;22.11;71.94;100407.03;5088878;27;45365;-79
2023/08/25 09:27:02;;;;;;;;;2.00;2.00;;;;;22.12;71.34;100418.56;5087091;27;45292;-76
2023/08/25 09:29:40;;;;;;;;;3.25;2.00;;;;;22.15;70.73;100418.28;5100987;27;45438;-77
2023/08/25 09:32:05;;;;;;;;;2.00;1.75;;;;;22.15;69.72;100413.81;5097424;27;47064;-77
2023/08/25 09:34:31;;;;;;;;;3.50;2.00;;;;;22.14;69.82;100419.28;5102107;27;45357;-76
2023/08/25 09:36:56;;;;;;;;;2.50;2.25;;;;;22.22;70.29;100423.97;5091444;27;45491;-77
2023/08/25 09:39:22;;;;;;;;;2.00;1.75;;;;;22.25;69.48;100411.25;5104240;27;45470;-77
2023/08/25 09:41:49;;;;;;;;;1.75;1.75;;;;;22.30;68.91;100429.56;5106526;27;48101;-77
2023/08/25 09:44:15;;;;;;;;;2.25;2.25;;;;;22.33;68.32;100429.34;5099793;27;45438;-77
2023/08/25 09:46:41;;;;;;;;;1.75;1.75;;;;;22.30;68.79;100425.06;5095173;27;45284;-77
2023/08/25 09:49:08;;;;;;;;;4.00;2.00;;;;;22.30;68.03;100424.25;5098809;27;45637;-78
2023/08/25 09:51:39;;;;;;;;;4.00;2.75;;;;;22.30;67.89;100425.06;5091207;27;47320;-79
2023/08/25 09:54:08;;;;;;;;;4.00;2.00;;;;;22.24;67.80;100430.88;5089889;27;45487;-76
2023/08/25 09:56:35;;;;;;;;;2.50;2.50;;;;;22.26;67.63;100430.78;5102346;27;45459;-78
2023/08/25 09:59:02;;;;;;;;;3.50;3.00;;;;;22.40;67.75;100437.66;5096244;27;45527;-76
2023/08/25 10:01:27;;;;;;;;;4.00;2.00;;;;;22.59;67.75;100434.31;5099770;27;46173;-78
2023/08/25 10:03:53;;;;;;;;;2.75;2.75;;;;;22.73;66.92;100429.56;5101633;27;53051;-81
2023/08/25 10:06:19;;;;;;;;;4.00;3.00;;;;;22.77;65.96;100431.97;5102639;27;45370;-79
2023/08/25 10:08:46;;;;;;;;;3.00;3.00;;;;;22.79;65.91;100427.34;5081708;27;45278;-79
2023/08/25 10:11:12;;;;;;;;;7.50;3.50;;;;;22.74;65.49;100427.72;5102326;27;46401;-78
2023/08/25 10:13:39;;;;;;;;;5.00;4.50;;;;;22.61;65.35;100419.91;5091162;27;45535;-78
2023/08/25 10:16:06;;;;;;;;;6.25;3.00;;;;;22.51;64.84;100426.97;5084730;27;63694;-78
2023/08/25 10:18:39;;;;;;;;;5.75;3.00;;;;;22.42;64.76;100425.06;5084076;27;45499;-81
2023/08/25 10:21:06;;;;;;;;;7.75;3.00;;;;;22.36;64.55;100423.72;5101188;27;46062;-79
2023/08/25 10:23:33;;;;;;;;;4.75;4.75;;;;;22.31;65.21;100423.25;5096117;27;45882;-79
2023/08/25 10:25:59;;;;;;;;;3.50;3.50;;;;;22.30;64.97;100419.75;5087083;27;45416;-80
2023/08/25 10:28:25;;;;;;;;;4.00;4.00;;;;;22.31;65.37;100426.78;5066502;27;53491;-76
2023/08/25 10:30:51;;;;;;;;;5.00;5.00;;;;;22.34;65.70;100423.84;5095832;27;55901;-77
2023/08/25 10:33:16;;;;;;;;;6.00;3.75;;;;;22.40;65.71;100432.31;5102729;27;45921;-75
2023/08/25 10:35:44;;;;;;;;;3.25;3.25;;;;;22.48;65.36;100435.22;5100960;27;63331;-76
2023/08/25 10:38:22;;;;;;;;;4.50;3.00;;;;;22.52;65.02;100437.53;5087252;27;45331;-75
2023/08/25 10:40:55;;;;;;;;;10.25;5.25;;;;;22.59;64.45;100440.50;5106812;27;46324;-70
2023/08/25 10:43:25;;;;;;;;;5.00;4.50;;;;;22.66;64.34;100446.19;5083706;27;45726;-73
2023/08/25 10:46:07;;;;;;;;;6.00;5.00;;;;;22.74;63.31;100446.41;5093454;27;45433;-75
2023/08/25 10:48:33;;;;;;;;;3.25;3.00;;;;;22.71;63.11;100450.16;5073947;28;45209;-72
2023/08/25 10:51:15;;;;;;;;;4.25;3.50;;;;;22.73;63.29;100450.91;5073371;27;45402;-77
2023/08/25 10:53:52;;;;;;;;;8.00;5.25;;;;;22.76;63.27;100457.78;5064044;28;45530;-75
2023/08/25 10:56:17;;;;;;;;;9.25;5.25;;;;;22.84;63.62;100455.34;5068099;28;47523;-74
2023/08/25 10:58:43;;;;;;;;;6.00;4.25;;;;;22.89;63.78;100445.09;5074614;27;45322;-76
2023/08/25 11:01:09;;;;;;;;;5.75;5.75;;;;;22.94;63.78;100444.75;5058559;28;45372;-75
2023/08/25 11:04:03;;;;;;;;;6.75;6.00;;;;;23.05;63.75;100452.72;5052133;28;45426;-77
2023/08/25 11:06:39;;;;;;;;;9.25;7.25;;;;;;;;5073008;28;47273;-77
2023/08/25 11:09:04;;;;;;;;;10.75;6.50;;;;;23.08;63.86;100444.44;5072333;28;45449;-72
2023/08/25 11:11:30;;;;;;;;;6.50;5.00;;;;;23.13;63.15;100450.25;5076041;28;45204;-70